Lake Cumberland Regional Airport
KSME : now visible

Airfield :











YOU CAN JOIN US ON...

 
LOGIN :

Register | Disclaimer

   EN    FR    IT 

 









Legend :    VFR   Marginal VFR   IFR   Intensive IFR   Very Intensive IFR
Visi :
Ceiling :
>= 8 km
>= 3000ft
5 to 8 km
1000 to 3000 ft
1500m to 5 km
500 to 1000 ft
800 to 1500m
200 to 500 ft
< 800m
< 200 ft
Symbols :   Thunderstorms  Fog  Heavy snow  Heavy precipitations  Wind > 20 kt







- Airport Elevation : 927 ft


KSME - Lake Cumberland Regional

CURRENT METAR :
  • 220655Z AUTO 00000KT 10SM CLR 17/13 A2999 RMK AO2

EXPIRED METARs :
  • 220635Z AUTO 00000KT 10SM CLR 17/13 A2999 RMK AO2
  • 220615Z AUTO 07003KT 10SM CLR 18/14 A2999 RMK AO2
  • 220555Z AUTO 00000KT 10SM CLR 18/14 A2998 RMK AO2
  • 220535Z AUTO 00000KT 10SM CLR 18/14 A2998 RMK AO2
  • 220515Z AUTO 00000KT 10SM CLR 18/14 A2998 RMK AO2
  • 220455Z AUTO 00000KT 10SM CLR 18/14 A2999 RMK AO2
  • 220435Z AUTO 09003KT 10SM CLR 19/14 A2999 RMK AO2
  • 220415Z AUTO 09005KT 10SM CLR 19/14 A3000 RMK AO2

TAF KSME
Valid from the 22 at 06:00 until the 23 at 06:00 UTC


220526Z 2206/2306 00000KT P6SM SKC
FM221400 22012G18KT P6SM FEW250
KZID FIR / North America



MET'MAP, your aeronautical weather chart ! - Copyright ORBIFLY December 2007 - Disclaimer

ORBIFLY MET'MAP TEAM :

Programming & Development : Alexandra Zaïnal
Concept & Development : Baudouin d'Aumeries
Co-Development & Prog : Marc-Olivier Méhu
Technical & hardware support : Manuel Goepfert

Contact : metmap@orbifly.com




SOURCES & CREDITS :

   NOAA       Earth
Advisory